createdAt,value
2023-02-17T00:01:19.041Z,2.70
2023-02-17T00:03:48.335Z,2.10
2023-02-17T00:06:17.853Z,2.55
2023-02-17T00:08:45.669Z,2.88
2023-02-17T00:11:15.884Z,3.40
2023-02-17T00:13:42.958Z,3.65
2023-02-17T00:16:21.440Z,3.63
2023-02-17T00:18:53.050Z,5.07
2023-02-17T00:21:22.348Z,4.07
2023-02-17T00:23:50.147Z,4.32
2023-02-17T00:26:18.228Z,4.53
2023-02-17T00:28:45.721Z,4.82
2023-02-17T00:31:18.316Z,4.25
2023-02-17T00:33:45.303Z,4.75
2023-02-17T00:36:17.989Z,4.43
2023-02-17T00:38:45.379Z,4.70
2023-02-17T00:41:12.381Z,4.22
2023-02-17T00:43:39.251Z,3.00
2023-02-17T00:46:06.598Z,2.58
2023-02-17T00:48:33.843Z,2.60
2023-02-17T00:51:00.914Z,2.28
2023-02-17T00:53:27.964Z,2.10
2023-02-17T00:55:54.769Z,2.47
2023-02-17T00:58:21.808Z,2.22
2023-02-17T01:00:48.930Z,2.00
2023-02-17T01:03:16.276Z,1.92
2023-02-17T01:05:45.959Z,1.98
2023-02-17T01:08:13.490Z,2.15
2023-02-17T01:10:42.073Z,1.95
2023-02-17T01:13:10.399Z,1.90
2023-02-17T01:15:42.573Z,2.20
2023-02-17T01:18:09.383Z,2.47
2023-02-17T01:20:37.848Z,2.20
2023-02-17T01:23:05.850Z,2.40
2023-02-17T01:25:37.589Z,2.60
2023-02-17T01:28:05.586Z,2.42
2023-02-17T01:30:32.774Z,2.80
2023-02-17T01:32:59.911Z,2.40
2023-02-17T01:35:27.055Z,2.45
2023-02-17T01:37:54.140Z,2.75
2023-02-17T01:40:21.208Z,2.90
2023-02-17T01:42:48.335Z,2.88
2023-02-17T01:45:18.437Z,3.08
2023-02-17T01:48:02.876Z,2.95
2023-02-17T01:50:37.305Z,2.70
2023-02-17T01:53:07.716Z,2.50
2023-02-17T01:55:37.609Z,3.67
2023-02-17T01:58:06.779Z,2.63
2023-02-17T02:00:35.863Z,2.85
2023-02-17T02:03:07.555Z,2.70
2023-02-17T02:05:37.231Z,2.53
2023-02-17T02:08:05.215Z,2.97
2023-02-17T02:10:32.046Z,2.92
2023-02-17T02:12:59.104Z,2.95
2023-02-17T02:15:31.920Z,2.88
2023-02-17T02:18:48.203Z,3.45
2023-02-17T02:21:36.288Z,2.95
2023-02-17T02:24:19.254Z,3.38
2023-02-17T02:27:33.137Z,3.45
2023-02-17T02:30:17.374Z,3.38
2023-02-17T02:32:54.981Z,3.22
2023-02-17T02:35:30.183Z,4.03
2023-02-17T02:38:29.610Z,4.07
2023-02-17T02:41:07.058Z,3.30
2023-02-17T02:43:34.215Z,3.65
2023-02-17T02:46:01.214Z,3.90
2023-02-17T02:48:28.653Z,4.20
2023-02-17T02:51:16.308Z,4.30
2023-02-17T02:54:05.228Z,3.80
2023-02-17T02:56:56.503Z,4.10
2023-02-17T02:59:26.353Z,4.32
2023-02-17T03:02:16.815Z,4.07
2023-02-17T03:05:05.047Z,4.63
2023-02-17T03:08:15.972Z,4.03
2023-02-17T03:10:51.990Z,4.13
2023-02-17T03:13:20.273Z,4.32
2023-02-17T03:15:48.431Z,4.45
2023-02-17T03:18:15.547Z,4.97
2023-02-17T03:20:55.625Z,4.53
2023-02-17T03:23:22.649Z,6.00
2023-02-17T03:25:49.525Z,5.40
2023-02-17T03:28:16.452Z,4.43
2023-02-17T03:30:43.273Z,4.80
2023-02-17T03:33:10.462Z,5.18
2023-02-17T03:35:37.347Z,4.78
2023-02-17T03:38:04.220Z,4.78
2023-02-17T03:40:31.187Z,4.93
2023-02-17T03:42:58.372Z,4.80
2023-02-17T03:45:25.482Z,5.30
2023-02-17T03:47:52.687Z,4.82
2023-02-17T03:50:19.687Z,5.05
2023-02-17T03:52:46.803Z,4.90
2023-02-17T03:55:14.126Z,5.28
2023-02-17T03:57:41.104Z,4.90
2023-02-17T04:00:08.432Z,5.10
2023-02-17T04:02:35.492Z,5.28
2023-02-17T04:05:03.058Z,4.70
2023-02-17T04:07:29.979Z,5.43
2023-02-17T04:09:56.748Z,4.57
2023-02-17T04:12:23.634Z,4.93
2023-02-17T04:14:50.622Z,5.53
2023-02-17T04:17:17.449Z,5.60
2023-02-17T04:19:44.340Z,5.10
2023-02-17T04:22:11.363Z,4.75
2023-02-17T04:24:38.495Z,4.93
2023-02-17T04:27:06.049Z,5.00
2023-02-17T04:29:33.710Z,4.72
2023-02-17T04:32:00.698Z,4.72
2023-02-17T04:34:27.612Z,5.22
2023-02-17T04:36:54.731Z,5.32
2023-02-17T04:39:22.189Z,4.60
2023-02-17T04:41:48.965Z,4.68
2023-02-17T04:44:15.779Z,4.20
2023-02-17T04:46:42.667Z,4.72
2023-02-17T04:49:09.518Z,4.63
2023-02-17T04:51:36.394Z,4.30
2023-02-17T04:54:03.374Z,4.03
2023-02-17T04:56:30.298Z,3.58
2023-02-17T04:58:57.086Z,4.15
2023-02-17T05:01:23.999Z,3.70
2023-02-17T05:03:52.061Z,3.83
2023-02-17T05:06:19.198Z,3.67
2023-02-17T05:08:48.386Z,3.58
2023-02-17T05:11:15.560Z,3.60
2023-02-17T05:13:42.591Z,3.70
2023-02-17T05:16:09.797Z,3.95
2023-02-17T05:18:37.069Z,3.15
2023-02-17T05:21:04.445Z,3.25
2023-02-17T05:23:31.488Z,3.20
2023-02-17T05:25:58.533Z,2.97
2023-02-17T05:28:25.522Z,2.88
2023-02-17T05:30:52.388Z,3.30
2023-02-17T05:33:19.577Z,3.00
2023-02-17T05:35:46.634Z,2.75
2023-02-17T05:38:13.684Z,2.47
2023-02-17T05:40:40.632Z,2.58
2023-02-17T05:43:07.600Z,2.13
2023-02-17T05:45:34.670Z,2.58
2023-02-17T05:48:02.009Z,2.50
2023-02-17T05:50:29.054Z,2.22
2023-02-17T05:52:56.254Z,2.20
2023-02-17T05:55:23.492Z,2.20
2023-02-17T05:57:50.564Z,2.00
2023-02-17T06:00:17.857Z,2.00
2023-02-17T06:02:44.739Z,2.10
2023-02-17T06:05:12.712Z,1.80
2023-02-17T06:07:39.806Z,1.88
2023-02-17T06:10:07.686Z,1.85
2023-02-17T06:12:34.756Z,1.60
2023-02-17T06:15:01.772Z,1.50
2023-02-17T06:17:28.679Z,1.52
2023-02-17T06:19:55.946Z,1.80
2023-02-17T06:22:23.018Z,1.58
2023-02-17T06:24:50.315Z,1.50
2023-02-17T06:27:17.234Z,1.70
2023-02-17T06:29:45.136Z,1.70
2023-02-17T06:34:56.079Z,1.40
2023-02-17T06:37:22.991Z,1.38
2023-02-17T06:39:49.801Z,1.30
2023-02-17T06:42:16.929Z,1.42
2023-02-17T06:44:43.721Z,1.42
2023-02-17T06:47:10.535Z,1.30
2023-02-17T06:49:39.880Z,1.75
2023-02-17T06:52:07.602Z,2.20
2023-02-17T06:54:34.414Z,1.63
2023-02-17T06:57:01.251Z,1.45
2023-02-17T06:59:28.289Z,1.23
2023-02-17T07:01:55.291Z,1.65
2023-02-17T07:04:23.044Z,1.20
2023-02-17T07:06:50.049Z,1.40
2023-02-17T07:09:17.177Z,1.60
2023-02-17T07:11:45.271Z,1.35
2023-02-17T07:14:12.251Z,1.30
2023-02-17T07:16:39.646Z,1.13
2023-02-17T07:19:06.724Z,0.88
2023-02-17T07:21:33.957Z,1.13
2023-02-17T07:24:00.871Z,1.10
2023-02-17T07:26:27.672Z,1.10
2023-02-17T07:28:54.818Z,1.05
2023-02-17T07:31:21.946Z,1.20
2023-02-17T07:33:50.148Z,0.80
2023-02-17T07:36:17.729Z,0.88
2023-02-17T07:38:44.995Z,0.73
2023-02-17T07:41:15.785Z,0.93
2023-02-17T07:43:43.054Z,0.70
2023-02-17T07:46:11.291Z,0.82
2023-02-17T07:48:38.638Z,0.80
2023-02-17T07:51:07.531Z,0.90
2023-02-17T07:53:35.252Z,0.90
2023-02-17T07:56:07.739Z,0.70
2023-02-17T07:58:36.706Z,0.90
2023-02-17T08:01:12.403Z,0.90
2023-02-17T08:03:40.395Z,0.75
2023-02-17T08:06:14.814Z,0.82
2023-02-17T08:09:01.376Z,0.80
2023-02-17T08:11:48.924Z,0.98
2023-02-17T08:14:17.069Z,0.90
2023-02-17T08:16:43.923Z,0.90
2023-02-17T08:19:10.875Z,0.73
2023-02-17T08:21:37.946Z,0.80
2023-02-17T08:24:05.198Z,0.90
2023-02-17T08:26:32.131Z,1.00
2023-02-17T08:28:59.016Z,0.70
2023-02-17T08:31:31.716Z,1.08
2023-02-17T08:34:00.351Z,1.08
2023-02-17T08:36:29.276Z,0.82
2023-02-17T08:38:56.678Z,0.98
2023-02-17T08:41:24.979Z,0.68
2023-02-17T08:43:52.439Z,0.82
2023-02-17T08:46:20.705Z,0.90
2023-02-17T08:48:48.239Z,0.73
2023-02-17T08:51:17.808Z,0.88
2023-02-17T08:53:46.675Z,0.73
2023-02-17T08:56:13.458Z,0.80
2023-02-17T08:58:40.466Z,1.13
2023-02-17T09:01:07.580Z,0.90
2023-02-17T09:03:37.792Z,0.80
2023-02-17T09:06:06.248Z,0.80
2023-02-17T09:08:33.984Z,0.90
2023-02-17T09:11:01.385Z,0.63
2023-02-17T09:13:28.565Z,0.95
2023-02-17T09:15:55.805Z,1.10
2023-02-17T09:18:23.836Z,0.80
2023-02-17T09:20:51.183Z,1.00
2023-02-17T09:23:22.434Z,0.88
2023-02-17T09:25:49.348Z,0.98
2023-02-17T09:28:16.396Z,0.80
2023-02-17T09:30:43.532Z,0.88
2023-02-17T09:33:10.417Z,0.95
2023-02-17T09:35:38.119Z,0.82
2023-02-17T09:38:05.143Z,0.80
2023-02-17T09:40:52.234Z,0.82
2023-02-17T09:43:31.284Z,0.80
2023-02-17T09:46:05.871Z,0.95
2023-02-17T09:48:35.866Z,1.08
2023-02-17T09:51:23.596Z,1.27
2023-02-17T09:54:03.311Z,1.08
2023-02-17T09:56:35.253Z,0.98
2023-02-17T09:59:22.130Z,1.00
2023-02-17T10:01:50.529Z,1.15
2023-02-17T10:04:26.075Z,1.00
2023-02-17T10:07:28.624Z,1.17
2023-02-17T10:10:27.919Z,0.90
2023-02-17T10:13:02.314Z,1.00
2023-02-17T10:15:39.021Z,1.00
2023-02-17T10:18:27.759Z,1.17
2023-02-17T10:21:04.933Z,0.77
2023-02-17T10:23:31.917Z,0.98
2023-02-17T10:26:47.063Z,0.57
2023-02-17T10:29:17.999Z,1.10
2023-02-17T10:31:46.261Z,0.80
2023-02-17T10:34:17.322Z,0.60
2023-02-17T10:37:04.117Z,0.80
2023-02-17T10:39:57.055Z,0.90
2023-02-17T10:42:31.241Z,0.63
2023-02-17T10:45:10.935Z,0.50
2023-02-17T10:47:40.146Z,1.13
2023-02-17T10:50:17.905Z,0.68
2023-02-17T10:52:44.819Z,0.70
2023-02-17T10:55:23.749Z,0.82
2023-02-17T10:58:05.643Z,0.80
2023-02-17T11:00:33.234Z,0.82
2023-02-17T11:03:00.411Z,0.70
2023-02-17T11:05:34.082Z,0.65
2023-02-17T11:08:03.455Z,0.80
2023-02-17T11:10:36.864Z,0.90
2023-02-17T11:13:19.316Z,0.90
2023-02-17T11:15:47.564Z,0.70
2023-02-17T11:18:29.539Z,0.75
2023-02-17T11:21:11.563Z,0.70
2023-02-17T11:24:11.435Z,0.80
2023-02-17T11:26:38.417Z,1.00
2023-02-17T11:29:17.731Z,0.77
2023-02-17T11:31:55.961Z,0.80
2023-02-17T11:34:28.421Z,0.85
2023-02-17T11:37:06.253Z,0.85
2023-02-17T11:39:42.304Z,0.93
2023-02-17T11:42:29.173Z,0.80
2023-02-17T11:44:58.446Z,0.93
2023-02-17T11:47:56.517Z,1.10
2023-02-17T11:50:42.190Z,0.90
2023-02-17T11:53:15.237Z,0.80
2023-02-17T11:56:11.004Z,0.75
2023-02-17T11:58:46.746Z,0.85
2023-02-17T12:01:49.185Z,0.82
2023-02-17T12:04:45.417Z,0.88
2023-02-17T12:07:38.972Z,0.80
2023-02-17T12:10:33.291Z,0.70
2023-02-17T12:13:21.713Z,0.70
2023-02-17T12:16:00.723Z,0.90
2023-02-17T12:18:27.560Z,1.00
2023-02-17T12:20:57.664Z,0.70
2023-02-17T12:23:34.776Z,0.80
2023-02-17T12:26:16.732Z,1.13
2023-02-17T12:28:55.600Z,0.65
2023-02-17T12:31:31.348Z,0.90
2023-02-17T12:34:05.499Z,0.75
2023-02-17T12:36:36.596Z,0.63
2023-02-17T12:39:17.456Z,0.70
2023-02-17T12:42:20.153Z,0.63
2023-02-17T12:45:16.122Z,0.80
2023-02-17T12:48:01.712Z,0.63
2023-02-17T12:50:37.607Z,0.70
2023-02-17T12:53:14.118Z,0.70
2023-02-17T12:55:48.468Z,0.80
2023-02-17T12:58:25.819Z,0.60
2023-02-17T13:01:07.258Z,0.70
2023-02-17T13:03:36.470Z,0.85
2023-02-17T13:06:20.746Z,0.98
2023-02-17T13:08:56.129Z,0.70
2023-02-17T13:11:31.708Z,0.80
2023-02-17T13:14:09.442Z,0.80
2023-02-17T13:16:46.164Z,0.85
2023-02-17T13:19:15.303Z,0.88
2023-02-17T13:21:54.164Z,0.88
2023-02-17T13:24:53.414Z,0.70
2023-02-17T13:27:32.363Z,1.20
2023-02-17T13:30:18.118Z,0.70
2023-02-17T13:32:45.701Z,0.82
2023-02-17T13:35:35.857Z,0.80
2023-02-17T13:38:03.125Z,0.90
2023-02-17T13:40:30.286Z,0.85
2023-02-17T13:42:58.195Z,0.90
2023-02-17T13:45:48.212Z,1.10
2023-02-17T13:48:27.639Z,0.90
2023-02-17T13:50:59.786Z,1.17
2023-02-17T13:53:32.994Z,1.20
2023-02-17T13:56:02.345Z,1.00
2023-02-17T13:58:33.073Z,0.80
2023-02-17T14:01:01.844Z,0.90
2023-02-17T14:03:41.039Z,0.90
2023-02-17T14:06:21.166Z,0.90
2023-02-17T14:08:48.593Z,0.85
2023-02-17T14:11:20.053Z,1.20
2023-02-17T14:13:50.694Z,1.20
2023-02-17T14:16:35.825Z,1.00
2023-02-17T14:19:02.633Z,1.10
2023-02-17T14:21:29.850Z,1.00
2023-02-17T14:23:58.368Z,1.00
2023-02-17T14:26:43.872Z,1.30
2023-02-17T14:29:13.479Z,1.38
2023-02-17T14:31:43.990Z,1.38
2023-02-17T14:34:32.281Z,1.38
2023-02-17T14:37:22.330Z,0.88
2023-02-17T14:39:49.947Z,1.38
2023-02-17T14:42:17.284Z,1.00
2023-02-17T14:44:44.891Z,1.17
2023-02-17T14:47:11.762Z,1.02
2023-02-17T14:49:38.800Z,1.10
2023-02-17T14:52:32.099Z,0.85
2023-02-17T14:55:00.182Z,1.33
2023-02-17T14:57:28.149Z,1.25
2023-02-17T14:59:57.902Z,1.02
2023-02-17T15:02:25.005Z,1.15
2023-02-17T15:04:52.492Z,0.90
2023-02-17T15:07:19.540Z,1.20
2023-02-17T15:09:48.279Z,1.38
2023-02-17T15:12:18.277Z,1.42
2023-02-17T15:14:46.884Z,1.40
2023-02-17T15:17:14.589Z,1.40
2023-02-17T15:19:44.765Z,1.30
2023-02-17T15:22:13.637Z,1.35
2023-02-17T15:24:41.543Z,1.20
2023-02-17T15:27:14.064Z,1.40
2023-02-17T15:29:41.041Z,1.17
2023-02-17T15:32:18.808Z,1.00
2023-02-17T15:34:46.700Z,1.20
2023-02-17T15:37:13.706Z,1.00
2023-02-17T15:39:40.799Z,1.10
2023-02-17T15:42:13.659Z,1.00
2023-02-17T15:44:45.290Z,1.20
2023-02-17T15:47:19.012Z,1.13
2023-02-17T15:49:46.346Z,1.20
2023-02-17T15:52:16.213Z,1.48
2023-02-17T15:54:43.905Z,1.27
2023-02-17T15:57:25.064Z,1.20
2023-02-17T15:59:55.055Z,1.00
2023-02-17T16:02:24.524Z,1.05
2023-02-17T16:04:51.451Z,1.23
2023-02-17T16:07:18.453Z,0.93
2023-02-17T16:09:45.306Z,1.30
2023-02-17T16:12:18.843Z,0.88
2023-02-17T16:14:45.743Z,1.38
2023-02-17T16:17:15.679Z,1.15
2023-02-17T16:19:43.058Z,1.38
2023-02-17T16:22:10.180Z,1.60
2023-02-17T16:24:37.022Z,1.50
2023-02-17T16:27:06.015Z,1.33
2023-02-17T16:29:32.947Z,1.17
2023-02-17T16:32:00.096Z,1.60
2023-02-17T16:34:27.165Z,1.58
2023-02-17T16:36:57.344Z,1.52
2023-02-17T16:39:24.359Z,1.88
2023-02-17T16:41:51.488Z,1.90
2023-02-17T16:44:21.941Z,1.98
2023-02-17T16:46:51.767Z,2.08
2023-02-17T16:49:24.665Z,2.42
2023-02-17T16:51:52.860Z,2.13
2023-02-17T16:54:19.864Z,2.05
2023-02-17T16:56:50.207Z,2.25
2023-02-17T16:59:20.256Z,3.40
2023-02-17T17:01:48.350Z,2.75
2023-02-17T17:04:16.229Z,2.80
2023-02-17T17:06:49.697Z,3.25
2023-02-17T17:09:25.331Z,3.97
2023-02-17T17:11:52.142Z,3.95
2023-02-17T17:14:21.421Z,3.03
2023-02-17T17:16:55.776Z,3.50
2023-02-17T17:19:22.925Z,3.20
2023-02-17T17:21:50.208Z,2.85
2023-02-17T17:24:17.426Z,3.58
2023-02-17T17:26:47.244Z,3.10
2023-02-17T17:29:17.135Z,3.20
2023-02-17T17:31:45.243Z,3.25
2023-02-17T17:34:12.361Z,2.70
2023-02-17T17:36:45.133Z,2.80
2023-02-17T17:39:19.686Z,3.60
2023-02-17T17:41:47.469Z,3.30
2023-02-17T17:44:14.916Z,3.17
2023-02-17T17:46:42.139Z,2.85
2023-02-17T17:49:11.713Z,2.42
2023-02-17T17:51:39.619Z,3.40
2023-02-17T17:54:07.452Z,3.00
2023-02-17T17:56:39.033Z,3.47
2023-02-17T17:59:06.698Z,3.38
2023-02-17T18:01:34.008Z,3.42
2023-02-17T18:04:01.255Z,3.53
2023-02-17T18:06:37.830Z,3.03
2023-02-17T18:09:07.378Z,3.20
2023-02-17T18:11:35.337Z,3.40
2023-02-17T18:14:07.064Z,3.88
2023-02-17T18:16:36.663Z,3.40
2023-02-17T18:19:06.247Z,2.83
2023-02-17T18:21:38.774Z,3.03
2023-02-17T18:24:06.327Z,2.85
2023-02-17T18:26:36.869Z,3.30
2023-02-17T18:29:12.703Z,3.42
2023-02-17T18:31:45.891Z,3.17
2023-02-17T18:34:19.447Z,3.35
2023-02-17T18:36:47.280Z,3.33
2023-02-17T18:39:14.545Z,3.45
2023-02-17T18:41:44.564Z,3.10
2023-02-17T18:44:14.253Z,3.60
2023-02-17T18:46:41.835Z,3.60
2023-02-17T18:49:09.484Z,3.50
2023-02-17T18:51:38.950Z,3.38
2023-02-17T18:54:13.028Z,4.00
2023-02-17T18:56:40.150Z,3.55
2023-02-17T18:59:07.616Z,4.00
2023-02-17T19:01:39.306Z,3.63
2023-02-17T19:04:07.069Z,4.10
2023-02-17T19:06:35.059Z,3.38
2023-02-17T19:09:04.436Z,3.63
2023-02-17T19:11:32.581Z,3.70
2023-02-17T19:14:01.708Z,3.30
2023-02-17T19:16:30.984Z,3.70
2023-02-17T19:18:59.052Z,3.90
2023-02-17T19:21:26.541Z,3.63
2023-02-17T19:23:54.008Z,3.50
2023-02-17T19:26:22.437Z,4.25
2023-02-17T19:28:50.270Z,3.90
2023-02-17T19:31:19.807Z,3.92
2023-02-17T19:33:47.593Z,3.78
2023-02-17T19:36:20.726Z,4.65
2023-02-17T19:38:49.278Z,4.05
2023-02-17T19:41:18.751Z,4.30
2023-02-17T19:43:46.023Z,3.95
2023-02-17T19:46:15.612Z,3.85
2023-02-17T19:48:42.806Z,4.28
2023-02-17T19:51:11.062Z,4.68
2023-02-17T19:53:38.195Z,4.38
2023-02-17T19:56:18.504Z,4.35
2023-02-17T19:58:47.048Z,4.35
2023-02-17T20:01:20.210Z,4.72
2023-02-17T20:03:47.945Z,4.70
2023-02-17T20:06:18.737Z,4.63
2023-02-17T20:08:46.782Z,4.80
2023-02-17T20:11:15.400Z,4.70
2023-02-17T20:13:46.012Z,5.03
2023-02-17T20:16:15.449Z,4.97
2023-02-17T20:18:45.254Z,6.03
2023-02-17T20:21:19.772Z,4.78
2023-02-17T20:23:47.002Z,6.00
2023-02-17T20:26:23.837Z,5.30
2023-02-17T20:28:51.200Z,6.63
2023-02-17T20:31:22.475Z,5.65
2023-02-17T20:33:49.731Z,5.45
2023-02-17T20:36:17.409Z,6.00
2023-02-17T20:38:45.209Z,6.85
2023-02-17T20:41:16.640Z,6.45
2023-02-17T20:43:43.636Z,5.57
2023-02-17T20:46:21.781Z,6.22
2023-02-17T20:48:49.002Z,6.32
2023-02-17T20:51:15.952Z,6.38
2023-02-17T20:53:42.865Z,6.50
2023-02-17T20:56:18.268Z,7.32
2023-02-17T20:58:46.072Z,6.65
2023-02-17T21:01:12.984Z,7.00
2023-02-17T21:03:40.453Z,6.72
2023-02-17T21:06:20.834Z,7.72
2023-02-17T21:08:51.710Z,6.68
2023-02-17T21:11:18.657Z,6.82
2023-02-17T21:13:45.678Z,6.65
2023-02-17T21:16:14.483Z,6.55
2023-02-17T21:18:41.715Z,7.13
2023-02-17T21:21:09.040Z,7.00
2023-02-17T21:23:36.277Z,6.97
2023-02-17T21:26:06.502Z,6.30
2023-02-17T21:28:33.768Z,5.72
2023-02-17T21:31:00.707Z,7.85
2023-02-17T21:33:29.256Z,6.80
2023-02-17T21:35:57.879Z,7.28
2023-02-17T21:38:34.308Z,7.25
2023-02-17T21:41:11.664Z,7.38
2023-02-17T21:43:59.162Z,7.72
2023-02-17T21:46:34.419Z,7.30
2023-02-17T21:51:51.282Z,7.25
2023-02-17T21:54:19.503Z,7.40
2023-02-17T21:59:35.640Z,8.07
2023-02-17T22:02:03.040Z,8.00
2023-02-17T22:04:30.623Z,9.32
2023-02-17T22:06:57.527Z,8.38
2023-02-17T22:09:24.484Z,8.70
2023-02-17T22:11:51.449Z,8.70
2023-02-17T22:14:21.337Z,9.13
2023-02-17T22:16:49.041Z,9.70
2023-02-17T22:19:22.280Z,9.60
2023-02-17T22:21:51.353Z,9.68
2023-02-17T22:24:20.711Z,8.68
2023-02-17T22:26:48.913Z,8.60
2023-02-17T22:29:15.949Z,9.82
2023-02-17T22:31:42.775Z,7.90
2023-02-17T22:34:13.006Z,6.50
2023-02-17T22:36:40.137Z,6.60
2023-02-17T22:39:08.566Z,6.03
2023-02-17T22:41:36.262Z,5.70
2023-02-17T22:44:03.953Z,5.65
2023-02-17T22:46:31.699Z,4.95
2023-02-17T22:48:59.470Z,5.47
2023-02-17T22:51:33.637Z,5.45
2023-02-17T22:54:01.994Z,4.45
2023-02-17T22:56:29.320Z,4.65
2023-02-17T22:58:58.204Z,4.53
2023-02-17T23:01:25.731Z,5.38
2023-02-17T23:03:56.544Z,5.20
2023-02-17T23:06:29.629Z,5.30
2023-02-17T23:08:57.740Z,5.30
2023-02-17T23:11:49.124Z,5.88
2023-02-17T23:14:29.072Z,5.40
2023-02-17T23:16:59.847Z,5.55
2023-02-17T23:19:26.920Z,5.80
2023-02-17T23:21:58.065Z,5.53
2023-02-17T23:24:26.533Z,6.25
2023-02-17T23:26:54.853Z,5.82
2023-02-17T23:29:22.910Z,6.05
2023-02-17T23:31:50.127Z,5.57
2023-02-17T23:34:17.545Z,5.30
2023-02-17T23:36:46.143Z,5.97
2023-02-17T23:39:15.186Z,4.97
2023-02-17T23:41:42.902Z,5.88
2023-02-17T23:44:12.262Z,4.78
2023-02-17T23:46:40.421Z,4.57
2023-02-17T23:49:07.557Z,4.88
2023-02-17T23:51:34.509Z,4.57
2023-02-17T23:54:01.407Z,5.32
2023-02-17T23:56:30.249Z,4.57
2023-02-17T23:58:57.377Z,5.57
